SL980 / HS-LTJ 7700 Squawk Report (19th of October, 2018)

Aircraft B739 Reg No. HS-LTJ Age 4 years old
Model 737 Jet engines 2 First flight 28-08-14
Registered 08-09-14 Rollout N/A Delivered 08-09-14
Construction No. 39823 Line No. 5070 Series 9GP(ER)
ADSHEX 88328A Airline name Thai Lion Air Owner N/A
Airfield based Bangkok-Don Mueang~ ~HS First tracked 2014-08-31 16:29:02

Flight history for HS-LTJ

Time Lat Lon Altitude Heading Speed Vertical Rate
2018-10-19 01:46:54 GMT 13.928055 100.613266 100 209 149 -960
2018-10-19 01:46:48 GMT 13.932293 100.615639 200 209 150 -512
2018-10-19 01:46:45 GMT 13.934372 100.616821 225 209 150 -768
2018-10-19 01:46:36 GMT 13.939499 100.619705 350 210 149 -768
2018-10-19 01:46:33 GMT 13.940859 100.620453 375 209 150 -640
2018-10-19 01:46:25 GMT 13.946365 100.623589 475 210 149 -832
2018-10-19 01:46:22 GMT 13.947556 100.624298 525 210 149 -960
2018-10-19 01:46:16 GMT 13.952311 100.626961 600 209 149 -576
2018-10-19 01:46:13 GMT 13.953644 100.627708 625 209 149 -896
2018-10-19 01:46:02 GMT 13.960271 100.631439 775 209 147 -832
2018-10-19 01:45:51 GMT 13.966644 100.635002 925 208 148 -768
2018-10-19 01:45:43 GMT 13.971725 100.637794 1,025 209 149 -832
2018-10-19 01:45:40 GMT 13.973190 100.638603 1,050 210 149 -832
2018-10-19 01:45:30 GMT 13.979782 100.642387 1,200 209 150 -832
2018-10-19 01:45:22 GMT 13.984572 100.645126 1,300 209 153 -832
2018-10-19 01:45:19 GMT 13.986341 100.646088 1,350 209 153 -832
2018-10-19 01:45:11 GMT 13.991272 100.648827 1,450 209 158 -704
2018-10-19 01:45:07 GMT 13.993378 100.650017 1,475 209 161 -768
2018-10-19 01:45:01 GMT 13.998413 100.652809 1,600 209 165 -896
2018-10-19 01:44:58 GMT 14.000565 100.654037 1,625 209 167 -896
2018-10-19 01:44:50 GMT 14.005380 100.656738 1,725 209 173 -832
2018-10-19 01:44:47 GMT 14.008220 100.658325 1,800 209 174 -896
2018-10-19 01:44:39 GMT 14.013108 100.661026 1,875 209 176 -704
2018-10-19 01:44:36 GMT 14.015668 100.662521 1,925 209 178 -512
2018-10-19 01:44:29 GMT 14.020650 100.665314 1,975 209 181 -704
2018-10-19 01:44:25 GMT 14.023908 100.667145 2,025 209 182 -768
2018-10-19 01:44:17 GMT 14.028809 100.669907 2,125 209 182 -832
2018-10-19 01:44:14 GMT 14.032241 100.671822 2,175 209 182 -768
2018-10-19 01:44:08 GMT 14.036431 100.674133 2,250 209 182 -768
2018-10-19 01:44:03 GMT 14.041031 100.676674 2,300 209 182 -768
2018-10-19 01:43:54 GMT 14.047091 100.680107 2,425 210 182 -768
2018-10-19 01:43:51 GMT 14.049042 100.681175 2,450 210 182 -768
2018-10-19 01:43:47 GMT 14.052119 100.682999 2,500 210 181 -768
2018-10-19 01:43:42 GMT 14.055331 100.684875 2,550 211 181 -768
2018-10-19 01:43:39 GMT 14.057100 100.685936 2,600 211 182 -768
2018-10-19 01:43:35 GMT 14.059986 100.687721 2,625 212 181 -768
2018-10-19 01:43:32 GMT 14.063278 100.689842 2,700 212 182 -768
2018-10-19 01:43:29 GMT 14.064743 100.690742 2,725 212 182 -768
2018-10-19 01:43:25 GMT 14.067673 100.692490 2,775 207 181 -768
2018-10-19 01:43:22 GMT 14.073160 100.694611 2,825 198 181 -768
2018-10-19 01:43:19 GMT 14.073160 100.694611 2,850 188 181 -576
2018-10-19 01:43:14 GMT 14.076186 100.694901 2,875 178 182 -512
2018-10-19 01:43:08 GMT 14.082145 100.693695 2,950 160 182 -640
2018-10-19 01:43:04 GMT 14.084705 100.692734 2,975 159 182 -576
2018-10-19 01:42:57 GMT 14.091037 100.690224 3,050 159 182 -640
2018-10-19 01:42:54 GMT 14.092945 100.689507 3,075 159 182 -640
2018-10-19 01:42:49 GMT 14.097565 100.687706 3,125 159 184 -768
2018-10-19 01:42:46 GMT 14.099487 100.686951 3,150 159 185 -832
2018-10-19 01:42:42 GMT 14.101730 100.686050 3,200 159 186 -1024
2018-10-19 01:42:38 GMT 14.106262 100.684296 3,300 158 186 -960
2018-10-19 01:42:35 GMT 14.108354 100.683479 3,325 158 186 -960
2018-10-19 01:42:32 GMT 14.109983 100.682808 3,375 158 186 -960
2018-10-19 01:42:27 GMT 14.114825 100.680832 3,450 158 188 -960
2018-10-19 01:42:22 GMT 14.118409 100.679382 3,500 158 189 -960
2018-10-19 01:42:16 GMT 14.123520 100.677383 3,625 158 189 -960
2018-10-19 01:42:11 GMT 14.127301 100.675865 3,700 158 190 -960
2018-10-19 01:42:05 GMT 14.132235 100.673843 3,775 158 192 -832
2018-10-19 01:42:00 GMT 14.136749 100.672035 3,850 158 193 -896
2018-10-19 01:41:55 GMT 14.141639 100.669991 3,925 157 196 -640
2018-10-19 01:41:50 GMT 14.145037 100.668594 3,950 158 199 -576
2018-10-19 01:41:43 GMT 14.151077 100.666115 4,025 157 202 -704
2018-10-19 01:41:40 GMT 14.154068 100.664879 4,075 158 204 -704
2018-10-19 01:41:32 GMT 14.160818 100.662132 4,150 158 208 -704
2018-10-19 01:41:29 GMT 14.163528 100.661003 4,200 158 210 -640
2018-10-19 01:41:22 GMT 14.170687 100.658134 4,300 158 214 -896
2018-10-19 01:41:18 GMT 14.173294 100.657127 4,325 159 215 -640
2018-10-19 01:41:11 GMT 14.181208 100.653992 4,375 158 220 -384
2018-10-19 01:41:08 GMT 14.183716 100.653000 4,400 158 222 -448
2018-10-19 01:41:00 GMT 14.194702 100.648643 4,500 158 231 -832
2018-10-19 01:40:57 GMT 14.194702 100.648643 4,500 158 231 -832
2018-10-19 01:40:49 GMT 14.205643 100.644333 4,575 158 235 -320
2018-10-19 01:40:46 GMT 14.205643 100.644333 4,600 158 238 -192
2018-10-19 01:40:39 GMT 14.212538 100.641655 4,650 158 242 -512
2018-10-19 01:40:35 GMT 14.217361 100.639740 4,675 158 244 -640
2018-10-19 01:40:27 GMT 14.225247 100.636597 4,775 158 246 -1024
2018-10-19 01:40:24 GMT 14.228851 100.635147 4,850 158 246 -1216
2018-10-19 01:40:16 GMT 14.236954 100.631874 5,000 158 246 -1280
2018-10-19 01:40:13 GMT 14.241028 100.630234 5,075 158 246 -1280
2018-10-19 01:40:05 GMT 14.248856 100.627045 5,225 158 245 -1408
2018-10-19 01:40:02 GMT 14.252061 100.625755 5,300 158 245 -1408
2018-10-19 01:39:55 GMT 14.259064 100.622925 5,425 158 246 -512
2018-10-19 01:39:51 GMT 14.263559 100.621132 5,450 158 248 -512
2018-10-19 01:39:43 GMT 14.272018 100.617767 5,500 158 253 -448
2018-10-19 01:39:39 GMT 14.275497 100.616394 5,525 158 255 -448
2018-10-19 01:39:33 GMT 14.283763 100.613083 5,600 158 259 -448
2018-10-19 01:39:29 GMT 14.288956 100.610992 5,625 158 261 -512
2018-10-19 01:39:22 GMT 14.295319 100.608437 5,675 158 265 -832
2018-10-19 01:39:18 GMT 14.300661 100.606339 5,750 159 266 -1152
2018-10-19 01:39:12 GMT 14.307598 100.603638 5,875 158 267 -1344
2018-10-19 01:39:07 GMT 14.313649 100.601227 5,975 158 268 -1344
2018-10-19 01:39:00 GMT 14.320120 100.598679 6,075 158 267 -1280
2018-10-19 01:38:55 GMT 14.327103 100.595879 6,225 158 268 -1280
2018-10-19 01:38:50 GMT 14.332177 100.593811 6,325 158 268 -1344
2018-10-19 01:38:44 GMT 14.338694 100.591156 6,425 158 268 -1344
2018-10-19 01:38:39 GMT 14.344528 100.588783 6,550 158 269 -1280
2018-10-19 01:38:33 GMT 14.351990 100.585800 6,675 158 270 -1472
2018-10-19 01:38:29 GMT 14.356896 100.583832 6,825 158 269 -1472
2018-10-19 01:38:26 GMT 14.360870 100.582253 6,850 158 269 -1216
2018-10-19 01:38:23 GMT 14.365082 100.580544 6,925 158 270 -832
2018-10-19 01:38:19 GMT 14.369512 100.578773 7,000 158 271 -576
2018-10-19 01:38:16 GMT 14.373748 100.577087 7,025 158 271 -384
2018-10-19 01:38:12 GMT 14.377762 100.575478 7,025 158 271 0
2018-10-19 01:38:08 GMT 14.381802 100.573860 7,025 158 271 0
2018-10-19 01:38:05 GMT 14.386734 100.571877 7,025 158 271 0
2018-10-19 01:37:58 GMT 14.394464 100.568748 7,025 158 271 0
2018-10-19 01:37:54 GMT 14.398956 100.566956 7,025 158 271 0
2018-10-19 01:37:47 GMT 14.406464 100.563972 7,025 158 271 0
2018-10-19 01:37:43 GMT 14.411636 100.561890 7,025 158 271 0
2018-10-19 01:37:36 GMT 14.419416 100.558777 7,025 158 271 0
2018-10-19 01:37:29 GMT 14.428773 100.555016 7,025 158 270 0
2018-10-19 01:37:26 GMT 14.431566 100.553909 7,025 158 270 0
2018-10-19 01:37:21 GMT 14.437199 100.551697 7,025 158 270 0
2018-10-19 01:37:17 GMT 14.442581 100.549530 7,025 158 270 0
2018-10-19 01:37:13 GMT 14.447296 100.547684 7,025 158 270 0
2018-10-19 01:37:10 GMT 14.450089 100.546547 7,025 158 270 0
2018-10-19 01:37:05 GMT 14.456635 100.543938 7,025 158 269 0
2018-10-19 01:37:02 GMT 14.460149 100.542542 7,025 158 269 0
2018-10-19 01:36:59 GMT 14.462942 100.541428 7,025 158 269 0
2018-10-19 01:36:54 GMT 14.468994 100.539024 7,025 158 269 64
2018-10-19 01:36:51 GMT 14.472765 100.537529 7,025 158 269 64
2018-10-19 01:36:48 GMT 14.475769 100.536316 7,025 158 269 0
2018-10-19 01:36:43 GMT 14.481144 100.534157 7,025 158 268 64
2018-10-19 01:36:38 GMT 14.487854 100.531441 7,025 158 268 0
2018-10-19 01:36:32 GMT 14.494598 100.528755 7,025 158 268 0
2018-10-19 01:36:29 GMT 14.497650 100.527504 7,025 158 268 0
2018-10-19 01:36:26 GMT 14.501358 100.526039 7,025 158 268 0
2018-10-19 01:36:21 GMT 14.506701 100.523842 7,025 158 268 0
2018-10-19 01:36:18 GMT 14.511357 100.522011 7,025 158 269 0
2018-10-19 01:36:15 GMT 14.513219 100.521240 7,025 158 269 0
2018-10-19 01:36:12 GMT 14.518112 100.519318 7,025 158 269 0
2018-10-19 01:36:08 GMT 14.522110 100.517723 7,025 158 269 0
2018-10-19 01:36:04 GMT 14.526300 100.516037 7,025 158 269 0
2018-10-19 01:36:01 GMT 14.531662 100.513916 7,025 158 269 0
2018-10-19 01:35:56 GMT 14.535191 100.512520 7,025 158 269 0
2018-10-19 01:35:53 GMT 14.539124 100.510933 7,025 158 269 0
2018-10-19 01:35:50 GMT 14.544296 100.508896 7,025 158 269 0
2018-10-19 01:35:47 GMT 14.548004 100.507378 7,025 158 269 0
2018-10-19 01:35:44 GMT 14.550797 100.506248 7,025 158 269 0
2018-10-19 01:35:39 GMT 14.556186 100.504089 7,025 158 269 0
2018-10-19 01:35:36 GMT 14.559911 100.502594 7,025 158 269 0
2018-10-19 01:35:32 GMT 14.563635 100.501053 7,025 158 269 0
2018-10-19 01:35:28 GMT 14.569473 100.498665 7,025 158 269 0
2018-10-19 01:35:22 GMT 14.576019 100.496017 7,025 158 270 0
2018-10-19 01:35:17 GMT 14.582565 100.493408 7,025 158 270 0
2018-10-19 01:35:12 GMT 14.588654 100.490952 7,025 158 271 0
2018-10-19 01:35:06 GMT 14.595703 100.488106 7,025 158 271 0
2018-10-19 01:35:01 GMT 14.601575 100.485779 7,025 158 271 0
2018-10-19 01:34:55 GMT 14.609582 100.482597 7,025 158 272 0
2018-10-19 01:34:50 GMT 14.614517 100.480576 7,025 158 272 0
2018-10-19 01:34:43 GMT 14.622337 100.477486 7,025 158 272 0
2018-10-19 01:34:39 GMT 14.626785 100.475655 7,025 158 272 0
2018-10-19 01:34:32 GMT 14.635757 100.472099 7,025 158 272 0
2018-10-19 01:34:27 GMT 14.640472 100.470207 7,025 158 272 0
2018-10-19 01:34:20 GMT 14.649198 100.466698 7,025 158 271 0
2018-10-19 01:34:16 GMT 14.652503 100.465393 7,025 158 271 64
2018-10-19 01:34:10 GMT 14.661209 100.461922 7,025 158 271 64
2018-10-19 01:34:06 GMT 14.665212 100.460281 7,025 158 271 0
2018-10-19 01:33:59 GMT 14.674662 100.456528 7,025 158 272 0
2018-10-19 01:33:56 GMT 14.677921 100.455223 7,025 158 272 0
2018-10-19 01:33:48 GMT 14.687622 100.451309 7,025 158 271 0
2018-10-19 01:33:44 GMT 14.690676 100.450073 7,025 158 272 0
2018-10-19 01:33:37 GMT 14.700545 100.446121 7,025 158 271 0
2018-10-19 01:33:34 GMT 14.702919 100.445206 7,025 158 271 0
2018-10-19 01:33:26 GMT 14.713028 100.441132 7,025 158 271 0
2018-10-19 01:33:13 GMT 14.728500 100.434883 7,025 158 270 64
2018-10-19 01:33:04 GMT 14.738578 100.430794 7,025 158 270 0
2018-10-19 01:33:00 GMT 14.742096 100.429390 7,025 158 270 0
2018-10-19 01:32:51 GMT 14.753615 100.424774 7,025 158 271 0
2018-10-19 01:32:41 GMT 14.766037 100.419777 7,025 158 271 0
2018-10-19 01:32:30 GMT 14.778985 100.414558 7,025 158 271 0
2018-10-19 01:32:18 GMT 14.791855 100.409401 7,025 158 270 64
2018-10-19 01:32:07 GMT 14.804775 100.404198 7,025 158 270 0
2018-10-19 01:31:58 GMT 14.816926 100.399330 7,025 158 270 0
2018-10-19 01:31:46 GMT 14.830719 100.393791 7,025 158 270 0
2018-10-19 01:31:36 GMT 14.842157 100.389191 7,025 158 269 0
2018-10-19 01:31:24 GMT 14.854523 100.384201 7,025 158 268 0
2018-10-19 01:31:16 GMT 14.865692 100.379723 7,050 158 268 0
2018-10-19 01:31:05 GMT 14.877956 100.374771 7,025 158 267 64
2018-10-19 01:31:02 GMT 14.880478 100.373741 7,025 158 267 64
2018-10-19 01:30:52 GMT 14.893890 100.368347 7,025 158 267 0
2018-10-19 01:30:41 GMT 14.905701 100.363586 7,025 158 267 0
2018-10-19 01:30:32 GMT 14.915176 100.359718 7,025 158 267 0
2018-10-19 01:30:29 GMT 14.918427 100.358421 7,025 158 267 0
2018-10-19 01:30:22 GMT 14.928131 100.354515 7,025 158 267 0
2018-10-19 01:30:18 GMT 14.930923 100.353363 7,025 158 267 0
2018-10-19 01:30:11 GMT 14.940382 100.349564 7,025 158 268 0
2018-10-19 01:30:07 GMT 14.944106 100.348091 7,025 158 268 0
2018-10-19 01:30:00 GMT 14.953171 100.344444 7,025 158 268 64
2018-10-19 01:29:56 GMT 14.957560 100.342697 7,025 158 268 64
2018-10-19 01:29:47 GMT 14.968267 100.338379 7,025 158 268 64
2018-10-19 01:29:39 GMT 14.977577 100.334656 7,025 158 269 64
2018-10-19 01:29:35 GMT 14.981302 100.333183 7,025 158 269 64
2018-10-19 01:29:28 GMT 14.990659 100.329407 7,025 158 270 64
2018-10-19 01:29:25 GMT 14.993729 100.328209 7,025 158 270 0
2018-10-19 01:29:17 GMT 15.003321 100.324303 7,025 158 271 -192
2018-10-19 01:29:14 GMT 15.006363 100.323097 7,025 158 270 -704
2018-10-19 01:29:06 GMT 15.015289 100.319534 7,125 158 271 -1024
2018-10-19 01:29:03 GMT 15.019043 100.317993 7,175 158 271 -1088
2018-10-19 01:28:56 GMT 15.028226 100.314301 7,375 158 272 -1024
2018-10-19 01:28:52 GMT 15.031769 100.312881 7,375 158 272 -1024
2018-10-19 01:28:45 GMT 15.040981 100.309151 7,500 158 274 -1024
2018-10-19 01:28:42 GMT 15.044799 100.307579 7,550 158 274 -1024
2018-10-19 01:28:33 GMT 15.053558 100.304016 7,675 158 275 -1024
2018-10-19 01:28:30 GMT 15.057601 100.302383 7,725 158 276 -1024
2018-10-19 01:28:23 GMT 15.066725 100.298698 7,850 158 276 -1024
2018-10-19 01:28:19 GMT 15.070542 100.297180 7,900 158 276 -960
2018-10-19 01:28:11 GMT 15.081299 100.292839 8,025 158 275 -128
2018-10-19 01:28:06 GMT 15.086835 100.290657 8,025 158 275 -64
2018-10-19 01:28:00 GMT 15.093704 100.287880 8,025 158 274 0
2018-10-19 01:27:57 GMT 15.096798 100.286591 8,025 158 274 0
2018-10-19 01:27:49 GMT 15.108032 100.282097 8,025 158 276 64
2018-10-19 01:27:45 GMT 15.111374 100.280746 8,025 158 276 64
2018-10-19 01:27:35 GMT 15.124283 100.275490 8,025 158 277 0
2018-10-19 01:27:26 GMT 15.135315 100.271011 8,025 158 278 0
2018-10-19 01:27:14 GMT 15.148270 100.265762 8,025 158 279 0
2018-10-19 01:27:05 GMT 15.161133 100.260590 8,025 158 281 0
We lost coverage of the aircraft here for a total of 17 minutes
2018-10-19 01:10:19 GMT 15.399628 100.134933 11,725 339 383 -1344
2018-10-19 01:10:15 GMT 15.390976 100.138359 11,725 339 387 -1216
2018-10-19 01:10:11 GMT 15.382919 100.141541 11,825 340 390 -1152
2018-10-19 01:10:07 GMT 15.377472 100.143707 11,875 339 394 -1152
2018-10-19 01:10:04 GMT 15.374435 100.144890 11,925 340 396 -1152
2018-10-19 01:09:59 GMT 15.365799 100.148331 12,000 340 400 -1216
2018-10-19 01:09:55 GMT 15.356373 100.152054 12,125 340 404 -1216
2018-10-19 01:09:50 GMT 15.349297 100.154800 12,200 340 408 -1344
2018-10-19 01:09:45 GMT 15.340347 100.158302 12,325 340 412 -1728
2018-10-19 01:09:42 GMT 15.335312 100.160278 12,425 340 415 -2752
2018-10-19 01:09:39 GMT 15.326952 100.163483 12,650 340 415 -4032
2018-10-19 01:09:33 GMT 15.316152 100.167603 13,075 340 412 -4480
2018-10-19 01:09:27 GMT 15.307540 100.170891 13,400 340 411 -3968
2018-10-19 01:09:24 GMT 15.301767 100.173096 13,600 340 411 -3776
2018-10-19 01:09:21 GMT 15.294598 100.175842 13,850 340 411 -3648
2018-10-19 01:09:17 GMT 15.289215 100.177917 14,000 340 412 -3392
2018-10-19 01:09:14 GMT 15.282401 100.180550 14,200 340 412 -3328
2018-10-19 01:09:10 GMT 15.277374 100.182510 14,350 340 412 -3200
2018-10-19 01:09:07 GMT 15.269852 100.185387 14,550 340 414 -2560
2018-10-19 01:09:03 GMT 15.261932 100.188469 14,725 340 416 -2304
2018-10-19 01:08:59 GMT 15.256472 100.190552 14,850 340 418 -2304
2018-10-19 01:08:55 GMT 15.247375 100.194061 15,025 340 419 -2432
2018-10-19 01:08:52 GMT 15.243344 100.195610 15,100 340 422 -2304
2018-10-19 01:08:48 GMT 15.237808 100.197723 15,225 340 424 -2304
2018-10-19 01:08:45 GMT 15.231125 100.200226 15,350 340 426 -2176
2018-10-19 01:08:37 GMT 15.216577 100.205811 15,600 340 431 -2304
2018-10-19 01:08:34 GMT 15.210938 100.207985 15,725 340 434 -2816
2018-10-19 01:08:28 GMT 15.198074 100.212898 16,050 340 435 -3328
2018-10-19 01:08:24 GMT 15.190521 100.215843 16,275 340 437 -3136
2018-10-19 01:08:17 GMT 15.177567 100.220848 16,700 340 438 -3456
2018-10-19 01:08:13 GMT 15.168814 100.224297 16,875 340 439 -3584
2018-10-19 01:08:04 GMT 15.153591 100.230286 17,250 339 439 -3264
2018-10-19 01:08:01 GMT 15.147858 100.232559 17,450 339 440 -3072
2018-10-19 01:07:54 GMT 15.134505 100.237885 17,750 339 443 -2496
2018-10-19 01:07:49 GMT 15.125241 100.241562 17,925 340 445 -2752
2018-10-19 01:07:44 GMT 15.113650 100.246124 18,225 340 447 -3200
2018-10-19 01:07:40 GMT 15.105875 100.249168 18,425 340 447 -3008
2018-10-19 01:07:32 GMT 15.090683 100.255157 18,800 339 450 -3072
2018-10-19 01:07:29 GMT 15.085236 100.257324 18,925 339 450 -2816
2018-10-19 01:07:22 GMT 15.071915 100.262627 19,200 339 455 -1792
2018-10-19 01:07:19 GMT 15.064444 100.265594 19,300 339 456 -1856
2018-10-19 01:07:11 GMT 15.049713 100.271492 19,550 339 461 -2560
2018-10-19 01:07:08 GMT 15.043350 100.274048 19,675 339 462 -2880
2018-10-19 01:07:01 GMT 15.027668 100.280357 20,025 339 465 -2624
2018-10-19 01:06:57 GMT 15.022430 100.282478 20,150 339 466 -3008
2018-10-19 01:06:49 GMT 15.007050 100.288551 20,550 340 464 -5120
2018-10-19 01:06:46 GMT 14.999771 100.291344 20,900 340 461 -5376
2018-10-19 01:06:39 GMT 14.985771 100.296593 22,300 341 448 -4288
2018-10-19 01:06:34 GMT 14.977386 100.299728 21,800 341 453 -4864
2018-10-19 01:06:28 GMT 14.963974 100.304741 22,300 340 449 -4352
2018-10-19 01:06:25 GMT 14.956536 100.307533 22,575 341 447 -4160
2018-10-19 01:06:18 GMT 14.940628 100.313515 22,925 341 443 -3648
2018-10-19 01:06:14 GMT 14.936737 100.314957 23,200 340 441 -3392
2018-10-19 01:06:08 GMT 14.924089 100.319740 23,525 340 437 -2880
2018-10-19 01:06:05 GMT 14.920272 100.321167 23,625 340 435 -2688
2018-10-19 01:06:02 GMT 14.914581 100.323296 23,750 340 434 -2304
2018-10-19 01:05:56 GMT 14.904007 100.327339 23,925 340 432 -1216
2018-10-19 01:05:53 GMT 14.895721 100.330475 23,975 340 431 -448
2018-10-19 01:05:45 GMT 14.883309 100.335144 24,000 340 432 0
2018-10-19 01:05:42 GMT 14.875397 100.338135 24,000 340 432 0
2018-10-19 01:05:34 GMT 14.859558 100.344063 24,000 340 432 0
2018-10-19 01:05:31 GMT 14.854294 100.346085 24,000 340 432 0
2018-10-19 01:05:23 GMT 14.839966 100.351479 24,000 340 432 0
2018-10-19 01:05:20 GMT 14.834336 100.353584 24,000 340 432 0
2018-10-19 01:05:12 GMT 14.819641 100.359161 24,000 340 432 0
2018-10-19 01:05:08 GMT 14.813248 100.361549 24,000 340 432 0
2018-10-19 01:05:02 GMT 14.798910 100.366951 24,000 341 433 -64
2018-10-19 01:04:57 GMT 14.792113 100.369507 24,000 341 433 -64
2018-10-19 01:04:51 GMT 14.778900 100.374458 24,000 341 433 0
2018-10-19 01:04:48 GMT 14.772468 100.376877 24,000 341 433 0
2018-10-19 01:04:40 GMT 14.758828 100.381981 24,000 341 433 0
2018-10-19 01:04:37 GMT 14.753174 100.384071 24,000 341 433 0
2018-10-19 01:04:32 GMT 14.742209 100.388153 24,000 341 434 0
2018-10-19 01:04:29 GMT 14.737647 100.389885 24,000 341 434 0
2018-10-19 01:04:25 GMT 14.732340 100.391861 24,000 341 434 0
2018-10-19 01:04:18 GMT 14.719116 100.396805 24,000 340 434 0
2018-10-19 01:04:15 GMT 14.711904 100.399475 24,000 340 433 0
2018-10-19 01:04:11 GMT 14.703232 100.402771 24,000 340 433 64
2018-10-19 01:04:08 GMT 14.698264 100.404633 24,000 340 433 0
2018-10-19 01:04:05 GMT 14.692612 100.406754 24,000 340 433 0
2018-10-19 01:04:00 GMT 14.684280 100.409874 24,000 340 434 0
2018-10-19 01:03:57 GMT 14.677083 100.412582 24,000 340 434 0
2018-10-19 01:03:53 GMT 14.671417 100.414711 24,000 340 434 0
2018-10-19 01:03:50 GMT 14.664607 100.417305 24,000 340 433 0
2018-10-19 01:03:46 GMT 14.655901 100.420578 24,000 340 433 0
2018-10-19 01:03:42 GMT 14.650594 100.422554 24,000 340 433 0
2018-10-19 01:03:33 GMT 14.630577 100.430122 24,000 340 433 0
2018-10-19 01:03:30 GMT 14.625270 100.432144 24,000 340 433 0
2018-10-19 01:03:26 GMT 14.615067 100.435966 24,000 340 433 0
2018-10-19 01:03:22 GMT 14.609756 100.437958 24,000 340 433 0
2018-10-19 01:03:19 GMT 14.606003 100.439377 24,000 340 433 0
2018-10-19 01:03:14 GMT 14.585980 100.446892 24,000 340 433 64
2018-10-19 01:03:08 GMT 14.585980 100.446892 24,000 340 433 0
2018-10-19 01:03:03 GMT 14.574668 100.451134 24,000 340 432 0
2018-10-19 01:02:58 GMT 14.565590 100.454552 24,000 340 432 0
2018-10-19 01:02:50 GMT 14.549762 100.460480 24,000 340 432 0
2018-10-19 01:02:46 GMT 14.545247 100.462212 24,000 340 432 0
2018-10-19 01:02:39 GMT 14.529007 100.468315 24,000 340 432 -64
2018-10-19 01:02:36 GMT 14.524521 100.470016 24,000 340 432 -64
2018-10-19 01:02:29 GMT 14.512436 100.474564 24,000 340 432 0
2018-10-19 01:02:26 GMT 14.506050 100.476959 24,000 340 432 64
2018-10-19 01:02:19 GMT 14.488358 100.483559 24,000 340 431 0
2018-10-19 01:02:07 GMT 14.471786 100.489761 24,000 340 431 64
2018-10-19 01:02:04 GMT 14.465790 100.491989 24,000 340 431 0
2018-10-19 01:01:58 GMT 14.451118 100.497482 24,000 341 430 0
2018-10-19 01:01:55 GMT 14.445858 100.499458 24,000 341 430 0
2018-10-19 01:01:47 GMT 14.430775 100.505051 24,000 340 431 64
2018-10-19 01:01:44 GMT 14.427383 100.506340 24,000 340 431 64
2018-10-19 01:01:36 GMT 14.410478 100.512665 24,000 340 431 0
2018-10-19 01:01:32 GMT 14.405218 100.514641 24,000 341 430 0
2018-10-19 01:01:24 GMT 14.388692 100.520805 24,000 341 430 64
2018-10-19 01:01:21 GMT 14.384921 100.522202 24,000 340 431 0
2018-10-19 01:01:15 GMT 14.373276 100.526604 24,000 340 431 0
2018-10-19 01:01:12 GMT 14.366501 100.529114 24,000 340 431 0
2018-10-19 01:01:04 GMT 14.351077 100.534927 24,000 340 430 0
2018-10-19 01:01:00 GMT 14.345444 100.537025 24,000 340 430 0
2018-10-19 01:00:51 GMT 14.327056 100.543938 24,000 340 429 -64
2018-10-19 01:00:43 GMT 14.312858 100.549332 24,000 340 429 64
2018-10-19 01:00:40 GMT 14.307220 100.551422 24,000 340 429 64
2018-10-19 01:00:30 GMT 14.286696 100.559158 24,000 340 428 0
2018-10-19 01:00:21 GMT 14.272497 100.564461 24,000 340 428 0
2018-10-19 01:00:18 GMT 14.266891 100.566574 24,000 340 428 0
2018-10-19 01:00:10 GMT 14.250897 100.572609 24,000 340 427 64
2018-10-19 01:00:07 GMT 14.245637 100.574585 24,000 340 427 64
2018-10-19 01:00:00 GMT 14.230362 100.580307 24,000 340 428 0
2018-10-19 00:59:56 GMT 14.226271 100.581856 24,000 340 428 0
2018-10-19 00:59:47 GMT 14.206114 100.589424 24,000 340 427 0
2018-10-19 00:59:36 GMT 14.186371 100.596886 24,000 340 427 0
2018-10-19 00:59:27 GMT 14.169983 100.603035 24,000 340 427 0
2018-10-19 00:59:14 GMT 14.146480 100.611778 24,000 340 426 0
2018-10-19 00:59:06 GMT 14.130478 100.617767 24,000 340 426 64
2018-10-19 00:59:03 GMT 14.125625 100.619537 24,000 341 425 0
2018-10-19 00:58:55 GMT 14.111160 100.624962 24,000 341 425 0
2018-10-19 00:58:52 GMT 14.105561 100.627007 24,000 341 424 0
2018-10-19 00:58:42 GMT 14.085590 100.634476 24,000 341 424 64
2018-10-19 00:58:31 GMT 14.064468 100.642296 24,000 341 424 0
2018-10-19 00:58:23 GMT 14.052259 100.646812 24,000 341 424 0
2018-10-19 00:58:20 GMT 14.045975 100.649117 24,000 341 424 0
2018-10-19 00:58:12 GMT 14.031876 100.654320 24,000 341 424 0
2018-10-19 00:58:08 GMT 14.025192 100.656830 24,000 341 424 0
2018-10-19 00:58:01 GMT 14.005613 100.664162 24,000 340 423 0
2018-10-19 00:57:58 GMT 14.005613 100.664162 24,000 340 423 0
2018-10-19 00:57:52 GMT 13.988205 100.670662 24,000 340 423 0
2018-10-19 00:57:46 GMT 13.984153 100.672157 24,000 340 423 0
2018-10-19 00:57:39 GMT 13.971176 100.677010 24,000 340 424 -64
2018-10-19 00:57:36 GMT 13.964135 100.679626 24,000 340 423 0
2018-10-19 00:57:31 GMT 13.953801 100.683533 24,000 340 423 0
2018-10-19 00:57:26 GMT 13.944164 100.687141 24,000 340 424 0
2018-10-19 00:57:19 GMT 13.933830 100.691048 24,000 340 424 -64
2018-10-19 00:57:15 GMT 13.924576 100.694527 24,000 340 423 0
2018-10-19 00:57:10 GMT 13.915695 100.697845 24,000 340 423 0
2018-10-19 00:57:07 GMT 13.909012 100.700356 24,000 340 423 64
2018-10-19 00:57:04 GMT 13.904572 100.702011 24,000 341 424 64
2018-10-19 00:56:56 GMT 13.889372 100.707672 24,000 340 424 0
2018-10-19 00:56:53 GMT 13.883835 100.709778 24,000 340 424 0
2018-10-19 00:56:48 GMT 13.876419 100.712524 24,000 340 424 0
2018-10-19 00:56:42 GMT 13.863098 100.717499 24,000 340 423 0
2018-10-19 00:56:37 GMT 13.856461 100.720001 24,000 341 424 0
2018-10-19 00:56:34 GMT 13.848686 100.722900 24,000 340 423 64
2018-10-19 00:56:31 GMT 13.842407 100.725258 24,000 340 423 0
2018-10-19 00:56:27 GMT 13.837967 100.726921 24,000 341 424 0
2018-10-19 00:56:23 GMT 13.828715 100.730370 24,000 341 424 0
2018-10-19 00:56:20 GMT 13.822403 100.732697 24,000 341 424 0
2018-10-19 00:56:16 GMT 13.817963 100.734352 24,000 341 424 0
2018-10-19 00:56:11 GMT 13.807617 100.738235 24,000 341 424 64
2018-10-19 00:56:08 GMT 13.797226 100.742073 24,000 341 424 0
2018-10-19 00:56:01 GMT 13.787981 100.745499 24,000 341 424 0
2018-10-19 00:55:56 GMT 13.779090 100.748817 24,000 341 424 0
2018-10-19 00:55:50 GMT 13.766521 100.753494 24,000 341 424 0
2018-10-19 00:55:47 GMT 13.760925 100.755569 24,000 341 424 0
2018-10-19 00:55:43 GMT 13.755753 100.757507 24,000 341 424 0
2018-10-19 00:55:39 GMT 13.748337 100.760254 24,000 341 424 0
2018-10-19 00:55:35 GMT 13.739846 100.763420 24,000 341 424 0
2018-10-19 00:55:28 GMT 13.729111 100.767410 24,000 341 424 0
2018-10-19 00:55:25 GMT 13.720574 100.770554 24,000 341 424 0
2018-10-19 00:55:18 GMT 13.708005 100.775230 24,000 341 424 0
2018-10-19 00:55:12 GMT 13.699858 100.778259 24,000 341 424 64
2018-10-19 00:55:07 GMT 13.687987 100.782646 24,000 341 424 -64
2018-10-19 00:55:03 GMT 13.679489 100.785828 24,000 341 424 0
2018-10-19 00:54:56 GMT 13.668365 100.789948 24,000 341 424 0
2018-10-19 00:54:51 GMT 13.658333 100.793678 24,000 341 424 0
2018-10-19 00:54:45 GMT 13.648315 100.797432 24,000 340 425 0
2018-10-19 00:54:41 GMT 13.639389 100.800743 24,000 340 425 0
2018-10-19 00:54:34 GMT 13.627143 100.805298 24,000 340 425 0
2018-10-19 00:54:30 GMT 13.618205 100.808670 24,000 340 426 0
2018-10-19 00:54:24 GMT 13.608170 100.812393 24,000 340 427 0
2018-10-19 00:54:19 GMT 13.598465 100.816040 24,000 340 427 0
2018-10-19 00:54:13 GMT 13.588074 100.819923 24,000 340 427 0
2018-10-19 00:54:08 GMT 13.579102 100.823288 24,000 340 428 0
2018-10-19 00:54:01 GMT 13.565689 100.828308 24,000 340 428 0
2018-10-19 00:53:56 GMT 13.558228 100.831100 24,000 340 428 0
2018-10-19 00:53:51 GMT 13.545502 100.835831 24,000 340 428 0
2018-10-19 00:53:46 GMT 13.538415 100.838493 24,000 340 428 0
2018-10-19 00:53:39 GMT 13.523425 100.844086 24,000 340 428 0
2018-10-19 00:53:36 GMT 13.518165 100.846008 24,000 340 428 0
2018-10-19 00:53:31 GMT 13.509227 100.849388 24,000 340 428 0
2018-10-19 00:53:24 GMT 13.498352 100.853401 24,000 341 428 0
2018-10-19 00:53:18 GMT 13.485626 100.858093 24,000 341 428 0
2018-10-19 00:53:14 GMT 13.478119 100.860886 24,000 341 428 0
2018-10-19 00:53:07 GMT 13.465002 100.865768 24,000 341 428 64
2018-10-19 00:53:02 GMT 13.456762 100.868805 24,000 341 428 0
2018-10-19 00:52:56 GMT 13.444054 100.873528 24,000 341 428 64
2018-10-19 00:52:52 GMT 13.436559 100.876274 24,000 341 428 0
2018-10-19 00:52:46 GMT 13.425659 100.880302 24,000 341 428 64
2018-10-19 00:52:40 GMT 13.416308 100.883789 24,000 341 428 64
2018-10-19 00:52:35 GMT 13.405426 100.887833 24,000 340 428 0
2018-10-19 00:52:30 GMT 13.395676 100.891426 24,000 341 429 0
2018-10-19 00:52:25 GMT 13.384460 100.895599 24,000 341 429 64
2018-10-19 00:52:20 GMT 13.376221 100.898628 24,000 341 429 0
2018-10-19 00:52:14 GMT 13.364182 100.903076 24,000 341 429 0
2018-10-19 00:52:09 GMT 13.355164 100.906395 24,000 341 429 64
2018-10-19 00:52:03 GMT 13.345037 100.910149 24,000 341 430 0
2018-10-19 00:51:58 GMT 13.334885 100.913872 24,000 341 430 0
2018-10-19 00:51:51 GMT 13.323995 100.917953 24,000 341 430 0
2018-10-19 00:51:47 GMT 13.313474 100.921860 24,000 341 430 0
2018-10-19 00:51:41 GMT 13.304077 100.925339 24,000 341 430 0
2018-10-19 00:51:36 GMT 13.292770 100.929504 24,000 341 430 -64
2018-10-19 00:51:31 GMT 13.282610 100.933273 24,000 341 431 -64
2018-10-19 00:51:25 GMT 13.272043 100.937180 24,000 341 431 -64
2018-10-19 00:51:19 GMT 13.263757 100.940262 24,000 341 431 64
2018-10-19 00:51:14 GMT 13.252445 100.944458 24,000 340 432 64
2018-10-19 00:51:09 GMT 13.243790 100.947685 24,000 340 432 0
2018-10-19 00:51:02 GMT 13.231705 100.952187 24,000 341 433 64
2018-10-19 00:50:59 GMT 13.223023 100.955391 24,000 341 433 64
2018-10-19 00:50:51 GMT 13.210175 100.960159 24,000 341 433 0
2018-10-19 00:50:48 GMT 13.202587 100.962959 24,000 341 433 -64
2018-10-19 00:50:42 GMT 13.190530 100.967438 24,000 341 433 64
2018-10-19 00:50:37 GMT 13.182197 100.970520 24,000 340 432 384
2018-10-19 00:50:29 GMT 13.166794 100.976242 23,900 341 427 1024
2018-10-19 00:50:26 GMT 13.162308 100.977898 23,875 341 427 960
2018-10-19 00:50:20 GMT 13.141836 100.985512 23,725 341 426 960
2018-10-19 00:50:15 GMT 13.141836 100.985512 23,700 341 426 960
2018-10-19 00:50:09 GMT 13.122116 100.992767 23,600 341 425 960
2018-10-19 00:50:05 GMT 13.122116 100.992767 23,550 341 424 1024
2018-10-19 00:49:57 GMT 13.107714 100.998131 23,425 340 423 896
2018-10-19 00:49:54 GMT 13.102158 101.000153 23,375 340 423 960
2018-10-19 00:49:45 GMT 13.087743 101.005508 23,250 340 423 1472
2018-10-19 00:49:42 GMT 13.081421 101.007874 23,175 340 423 1600
2018-10-19 00:49:32 GMT 13.062241 101.014977 22,925 340 423 1600
2018-10-19 00:49:25 GMT 13.048546 101.020058 22,725 341 424 1664
2018-10-19 00:49:21 GMT 13.042236 101.022415 22,650 341 424 1856
2018-10-19 00:49:14 GMT 13.028137 101.027618 22,400 341 425 2304
2018-10-19 00:49:11 GMT 13.022570 101.029648 22,300 341 425 2240
2018-10-19 00:49:02 GMT 13.008087 101.035011 21,925 341 424 2112
2018-10-19 00:48:59 GMT 13.001761 101.037354 21,925 341 424 2112
2018-10-19 00:48:51 GMT 12.988083 101.042397 21,700 341 422 1792
2018-10-19 00:48:48 GMT 12.981790 101.044678 21,600 341 421 1920
2018-10-19 00:48:41 GMT 12.967079 101.050079 21,350 341 420 2176
2018-10-19 00:48:38 GMT 12.962657 101.051720 21,275 341 419 2048
2018-10-19 00:48:28 GMT 12.942535 101.059113 20,925 341 416 2048
2018-10-19 00:48:18 GMT 12.926514 101.065079 20,700 340 416 1728
2018-10-19 00:48:15 GMT 12.921877 101.066994 20,600 338 415 1536
2018-10-19 00:48:06 GMT 12.903023 101.075760 20,350 335 410 1600
2018-10-19 00:47:57 GMT 12.890641 101.081734 20,175 335 407 1216
2018-10-19 00:47:54 GMT 12.884857 101.084541 20,150 335 406 1152
2018-10-19 00:47:47 GMT 12.871042 101.091278 19,950 335 398 1920
2018-10-19 00:47:43 GMT 12.867039 101.093254 19,925 335 398 2048
2018-10-19 00:47:32 GMT 12.847766 101.102646 19,600 335 394 1920
2018-10-19 00:47:25 GMT 12.834915 101.108932 19,225 335 391 2368
2018-10-19 00:47:22 GMT 12.831665 101.110542 19,175 335 391 2432
2018-10-19 00:47:14 GMT 12.816297 101.118065 18,850 335 389 2176
2018-10-19 00:47:11 GMT 12.813995 101.119156 18,800 335 388 2304
2018-10-19 00:47:00 GMT 12.796463 101.127777 18,400 335 387 2176
2018-10-19 00:46:50 GMT 12.778729 101.136475 18,025 335 383 2368
2018-10-19 00:46:40 GMT 12.762360 101.144402 17,650 335 381 2432
2018-10-19 00:46:29 GMT 12.745926 101.152878 17,225 329 382 2688
2018-10-19 00:46:19 GMT 12.731186 101.164291 16,800 317 384 2304
2018-10-19 00:46:07 GMT 12.718781 101.179344 16,400 304 386 2688
2018-10-19 00:45:57 GMT 12.709900 101.196869 15,950 290 387 2432
2018-10-19 00:45:47 GMT 12.705409 101.216415 15,525 276 384 2304
2018-10-19 00:45:36 GMT 12.705734 101.235558 15,175 262 379 2304
2018-10-19 00:45:25 GMT 12.710297 101.253853 14,750 249 375 2624
2018-10-19 00:45:13 GMT 12.719742 101.271500 14,275 234 371 2624
2018-10-19 00:45:04 GMT 12.730640 101.283539 13,250 200 356 2624
2018-10-19 00:44:53 GMT 12.745723 101.293846 13,250 200 356 2624
2018-10-19 00:44:42 GMT 12.762909 101.299820 12,975 192 353 2880
2018-10-19 00:44:31 GMT 12.780396 101.301003 12,025 164 341 2752
2018-10-19 00:44:21 GMT 12.798386 101.297020 12,025 160 338 2752
2018-10-19 00:44:08 GMT 12.813364 101.288742 11,550 142 331 2304
2018-10-19 00:44:00 GMT 12.824387 101.277557 11,250 124 325 1024
2018-10-19 00:43:48 GMT 12.831619 101.264206 11,125 108 320 320
2018-10-19 00:43:45 GMT 12.833009 101.259880 11,125 107 320 320
2018-10-19 00:43:38 GMT 12.835104 101.246773 11,100 92 318 0
2018-10-19 00:43:27 GMT 12.835327 101.232056 11,075 90 314 1216
2018-10-19 00:43:16 GMT 12.835327 101.216232 10,850 89 304 1408
2018-10-19 00:43:04 GMT 12.835236 101.199753 10,625 89 293 896
2018-10-19 00:42:53 GMT 12.835098 101.182426 10,375 89 279 2688
2018-10-19 00:42:42 GMT 12.835052 101.168175 9,900 90 278 2816
2018-10-19 00:42:33 GMT 12.835052 101.158180 9,550 89 278 2688
2018-10-19 00:42:26 GMT 12.835052 101.149231 9,275 89 276 2560
2018-10-19 00:42:22 GMT 12.835007 101.143974 9,125 89 275 2560
2018-10-19 00:42:13 GMT 12.834964 101.130737 8,700 89 273 2496
2018-10-19 00:42:10 GMT 12.834961 101.126877 8,600 90 270 2752
2018-10-19 00:41:58 GMT 12.835007 101.113052 8,150 90 269 2816
2018-10-19 00:41:49 GMT 12.835290 101.099564 7,625 91 268 3264
2018-10-19 00:41:39 GMT 12.835648 101.088097 7,050 91 269 3136
2018-10-19 00:41:36 GMT 12.835709 101.084770 7,050 91 269 3136
2018-10-19 00:41:28 GMT 12.836014 101.074364 6,600 91 269 3264
2018-10-19 00:41:25 GMT 12.836081 101.070557 6,600 91 269 3264
2018-10-19 00:41:17 GMT 12.836334 101.060577 6,075 90 270 3328
2018-10-19 00:41:06 GMT 12.835709 101.047089 5,525 78 269 2944
2018-10-19 00:40:55 GMT 12.830063 101.033875 5,075 50 266 2432
2018-10-19 00:40:44 GMT 12.819835 101.024246 4,650 31 261 2560
2018-10-19 00:40:41 GMT 12.815971 101.022224 4,500 25 260 2496
2018-10-19 00:40:34 GMT 12.809326 101.020187 4,325 9 255 1280
2018-10-19 00:40:22 GMT 12.795502 101.018433 4,025 6 241 2240
2018-10-19 00:40:13 GMT 12.785153 101.017120 3,700 7 232 1344
2018-10-19 00:40:01 GMT 12.772842 101.015549 3,475 7 217 1152
2018-10-19 00:39:51 GMT 12.763320 101.014374 3,325 6 202 1216
2018-10-19 00:39:40 GMT 12.753172 101.013168 3,100 6 188 1280
2018-10-19 00:39:29 GMT 12.744186 101.012093 2,775 6 183 2624
2018-10-19 00:39:19 GMT 12.735156 101.011093 2,325 5 185 2688

Making use of Plane Finder data

You are free to use the raw flight data, aircraft information and images provided in this report for your own purposes provided the data is correctly attributed to Plane Finder. We ask that you please credit Plane Finder and link to planefinder.net in close proximity to the content.

Optionally one of the following logos (no smaller then 150x24px) can be used and must link to planefinder.net

Embedding the Plane Finder map

You are welcome to embed the Plane Finder playback map on your website to offer visitors a more interactive experience. We suggest using the following HTML code:

<iframe src="//planefinder.net/data/report/SL980-HS-LTJ-7700-squawk-2018-10-19/map" width="800" height="600" seamless="seamless"></iframe>

Where our data comes from

Plane Finder has a global network of data feeds and antenna radars that receive data broadcast directly from aircraft. The primary technologies used are ADS-B and MLAT. We also show feeds from the FAA and a FLARM glider feed.

Click here to find out more about the Plane Finder network.

How we collect our data